Time;durP1;ratioP1;P1;durP2;ratioP2;P2;SDS_P1;SDS_P2;PMS_P1;PMS_P2;Temp;Humidity;BMP_temperature;BMP_pressure;BME280_temperature;BME280_humidity;BME280_pressure;Samples;Min_cycle;Max_cycle;Signal;HPM_P1;HPM_P2
2022/08/19 00:01:34;;;;;;;12.90;8.88;;;22.30;97.70;;;;;;5052253;28;20217;-60
2022/08/19 00:04:02;;;;;;;12.45;8.88;;;22.20;97.80;;;;;;5052423;28;20193;-60
2022/08/19 00:06:29;;;;;;;11.70;8.45;;;22.20;97.80;;;;;;5052932;28;20189;-60
2022/08/19 00:08:55;;;;;;;12.80;8.60;;;22.20;97.80;;;;;;5052161;28;20213;-60
2022/08/19 00:11:22;;;;;;;13.10;9.30;;;22.20;97.90;;;;;;5051356;28;20268;-60
2022/08/19 00:13:49;;;;;;;13.10;9.00;;;22.30;98.00;;;;;;5051110;28;20181;-61
2022/08/19 00:16:19;;;;;;;12.98;9.50;;;22.30;97.90;;;;;;5051686;28;20665;-60
2022/08/19 00:18:44;;;;;;;12.43;8.55;;;22.40;97.90;;;;;;5052094;28;20189;-60
2022/08/19 00:21:10;;;;;;;11.90;8.80;;;22.40;97.90;;;;;;5051793;28;20192;-61
2022/08/19 00:23:36;;;;;;;14.43;9.50;;;22.50;97.80;;;;;;5051720;28;20176;-60
2022/08/19 00:26:03;;;;;;;13.60;8.68;;;22.50;97.70;;;;;;5051628;28;20209;-60
2022/08/19 00:28:29;;;;;;;12.07;8.93;;;22.60;97.60;;;;;;5051465;28;20546;-60
2022/08/19 00:30:55;;;;;;;15.07;9.23;;;22.60;97.50;;;;;;5051593;28;20589;-60
2022/08/19 00:33:21;;;;;;;13.95;9.55;;;22.60;97.50;;;;;;5051208;28;20177;-60
2022/08/19 00:35:46;;;;;;;15.63;9.10;;;22.60;97.60;;;;;;5052199;28;20209;-60
2022/08/19 00:38:12;;;;;;;12.65;8.65;;;22.50;97.50;;;;;;5051816;28;20181;-60
2022/08/19 00:40:37;;;;;;;14.52;8.75;;;22.50;97.60;;;;;;5051756;28;20169;-60
2022/08/19 00:43:09;;;;;;;12.38;9.38;;;22.60;97.60;;;;;;5051503;28;20213;-60
2022/08/19 00:45:35;;;;;;;14.65;9.48;;;22.60;97.40;;;;;;5051680;28;20598;-61
2022/08/19 00:48:04;;;;;;;13.30;8.30;;;22.60;97.30;;;;;;5049035;28;20202;-60
2022/08/19 00:50:32;;;;;;;15.65;9.27;;;22.50;97.50;;;;;;5051555;28;20728;-60
2022/08/19 00:52:59;;;;;;;14.27;9.55;;;22.30;97.90;;;;;;5050498;28;20541;-60
2022/08/19 00:55:28;;;;;;;12.90;9.20;;;22.10;98.20;;;;;;5051578;28;20220;-60
2022/08/19 00:58:04;;;;;;;15.05;10.00;;;22.00;98.50;;;;;;5050816;28;20181;-60
2022/08/19 01:00:31;;;;;;;15.25;10.32;;;21.80;98.90;;;;;;5050717;28;20560;-60
2022/08/19 01:02:57;;;;;;;16.58;10.05;;;21.70;99.20;;;;;;5051268;28;20185;-61
2022/08/19 01:05:27;;;;;;;17.55;10.32;;;21.60;99.50;;;;;;5051334;28;20188;-60
2022/08/19 01:07:54;;;;;;;14.30;10.02;;;21.60;99.60;;;;;;5049790;28;20247;-60
2022/08/19 01:10:24;;;;;;;16.38;10.63;;;21.50;99.80;;;;;;5051449;28;20276;-61
2022/08/19 01:12:52;;;;;;;14.35;9.70;;;21.40;99.90;;;;;;5050861;28;20196;-60
2022/08/19 01:15:28;;;;;;;16.73;10.02;;;21.40;99.90;;;;;;5050852;28;20191;-60
2022/08/19 01:17:55;;;;;;;15.80;10.50;;;21.40;99.90;;;;;;5044337;28;20180;-60
2022/08/19 01:20:23;;;;;;;15.63;10.27;;;21.40;99.90;;;;;;5050827;28;20596;-60
2022/08/19 01:22:54;;;;;;;15.50;10.45;;;21.40;99.90;;;;;;5050678;28;20178;-60
2022/08/19 01:25:26;;;;;;;16.85;10.70;;;21.30;99.90;;;;;;5051119;28;20593;-60
2022/08/19 01:27:52;;;;;;;15.30;10.70;;;21.20;99.90;;;;;;5050046;28;20209;-60
2022/08/19 01:30:22;;;;;;;16.58;10.88;;;21.20;99.90;;;;;;5050577;28;20578;-59
2022/08/19 01:32:49;;;;;;;15.57;10.98;;;21.20;99.90;;;;;;5050522;28;20645;-60
2022/08/19 01:35:17;;;;;;;15.57;10.73;;;21.20;99.90;;;;;;5049402;28;20192;-60
2022/08/19 01:37:51;;;;;;;17.00;11.00;;;21.20;99.90;;;;;;5050190;28;20604;-60
2022/08/19 01:40:20;;;;;;;19.17;11.57;;;21.10;99.90;;;;;;5050953;28;20189;-60
2022/08/19 01:42:47;;;;;;;15.88;10.68;;;21.10;99.90;;;;;;5049213;28;20178;-60
2022/08/19 01:45:13;;;;;;;17.88;11.32;;;21.00;99.90;;;;;;5050358;28;20181;-60
2022/08/19 01:47:39;;;;;;;17.27;11.88;;;21.00;99.90;;;;;;5050650;28;20296;-60
2022/08/19 01:50:07;;;;;;;17.85;11.85;;;21.00;99.90;;;;;;5050214;28;20181;-60
2022/08/19 01:52:39;;;;;;;17.77;12.00;;;21.00;99.90;;;;;;5050583;28;20263;-60
2022/08/19 01:55:07;;;;;;;18.17;12.15;;;21.00;99.90;;;;;;5050232;28;20220;-60
2022/08/19 01:57:33;;;;;;;17.73;11.88;;;21.00;99.90;;;;;;5050585;28;20182;-60
2022/08/19 02:00:00;;;;;;;17.58;11.98;;;21.00;99.90;;;;;;5050630;28;20188;-60
2022/08/19 02:02:26;;;;;;;18.25;12.50;;;21.00;99.90;;;;;;5050046;28;20595;-60
2022/08/19 02:04:51;;;;;;;18.77;12.25;;;20.90;99.90;;;;;;5054809;28;20260;-60
2022/08/19 02:07:21;;;;;;;17.60;12.07;;;20.90;99.90;;;;;;5054712;28;20178;-60
2022/08/19 02:09:47;;;;;;;18.58;12.82;;;20.90;99.90;;;;;;5054066;28;20251;-60
2022/08/19 02:12:14;;;;;;;19.23;12.93;;;20.90;99.90;;;;;;5054358;28;20965;-60
2022/08/19 02:14:40;;;;;;;18.17;12.38;;;20.90;99.90;;;;;;5054758;28;20235;-59
2022/08/19 02:17:05;;;;;;;18.48;11.90;;;20.90;99.90;;;;;;5052453;28;20256;-60
2022/08/19 02:19:32;;;;;;;18.30;12.35;;;20.90;99.90;;;;;;5054375;28;20656;-60
2022/08/19 02:21:58;;;;;;;21.52;12.98;;;20.90;99.90;;;;;;5054023;28;20192;-60
2022/08/19 02:24:24;;;;;;;18.67;13.18;;;20.80;99.90;;;;;;5054122;28;20226;-60
2022/08/19 02:26:50;;;;;;;19.73;12.48;;;20.80;99.90;;;;;;5053937;28;20185;-60
2022/08/19 02:29:16;;;;;;;20.88;13.35;;;20.70;99.90;;;;;;5053613;28;20205;-60
2022/08/19 02:31:42;;;;;;;20.40;12.75;;;20.70;99.90;;;;;;5053882;28;20186;-59
2022/08/19 02:34:07;;;;;;;21.85;13.95;;;20.70;99.90;;;;;;5053999;28;20200;-60
2022/08/19 02:36:33;;;;;;;17.30;12.95;;;20.70;99.90;;;;;;5054096;28;20173;-60
2022/08/19 02:38:58;;;;;;;19.65;14.02;;;20.70;99.90;;;;;;5053531;28;20542;-60
2022/08/19 02:41:27;;;;;;;20.65;13.70;;;20.70;99.90;;;;;;5053687;28;20182;-60
2022/08/19 02:43:54;;;;;;;20.55;13.57;;;20.70;99.90;;;;;;5053516;28;20196;-61
2022/08/19 02:46:26;;;;;;;19.30;13.20;;;20.70;99.90;;;;;;5053097;28;20672;-60
2022/08/19 02:48:54;;;;;;;20.08;14.30;;;20.70;99.90;;;;;;5053052;28;20229;-60
2022/08/19 02:51:32;;;;;;;21.90;14.15;;;20.70;99.90;;;;;;5053395;28;20184;-60
2022/08/19 02:53:59;;;;;;;20.00;13.98;;;20.70;99.90;;;;;;5044900;28;20188;-60
2022/08/19 02:56:26;;;;;;;20.58;13.70;;;20.60;99.90;;;;;;5053283;28;20543;-60
2022/08/19 02:58:53;;;;;;;21.25;14.60;;;20.60;99.90;;;;;;5053334;28;20236;-61
2022/08/19 03:01:31;;;;;;;19.90;13.68;;;20.60;99.90;;;;;;5052687;28;20213;-62
2022/08/19 03:03:59;;;;;;;22.80;14.68;;;20.60;99.90;;;;;;5052621;28;20268;-61
2022/08/19 03:06:25;;;;;;;20.58;13.85;;;20.60;99.90;;;;;;5052915;28;20271;-62
2022/08/19 03:08:50;;;;;;;22.70;13.95;;;20.50;99.90;;;;;;5053262;28;20249;-62
2022/08/19 03:11:21;;;;;;;22.05;14.77;;;20.50;99.90;;;;;;5053325;28;20211;-61
2022/08/19 03:13:48;;;;;;;20.95;13.77;;;20.50;99.90;;;;;;5052754;28;20185;-62
2022/08/19 03:16:15;;;;;;;18.50;14.02;;;20.40;99.90;;;;;;5052285;28;20178;-61
2022/08/19 03:18:40;;;;;;;20.98;14.27;;;20.40;99.90;;;;;;5053296;28;20196;-62
2022/08/19 03:21:06;;;;;;;22.27;14.57;;;20.40;99.90;;;;;;5052991;28;20178;-62
2022/08/19 03:23:32;;;;;;;20.05;14.30;;;20.30;99.90;;;;;;5053130;28;20180;-61
2022/08/19 03:25:57;;;;;;;20.95;14.48;;;20.30;99.90;;;;;;5052884;28;20177;-61
2022/08/19 03:28:23;;;;;;;21.95;14.63;;;20.30;99.90;;;;;;5052487;28;20305;-61
2022/08/19 03:30:57;;;;;;;19.55;14.13;;;20.20;99.90;;;;;;5052643;28;20629;-61
2022/08/19 03:33:24;;;;;;;22.92;14.68;;;20.20;99.90;;;;;;5052788;28;20185;-61
2022/08/19 03:36:04;;;;;;;20.35;14.73;;;20.20;99.90;;;;;;5053091;28;20247;-61
2022/08/19 03:38:32;;;;;;;23.58;14.63;;;20.30;99.90;;;;;;5052673;28;20643;-61
2022/08/19 03:40:57;;;;;;;20.75;14.55;;;20.20;99.90;;;;;;5052779;28;20189;-61
2022/08/19 03:43:23;;;;;;;19.02;13.55;;;20.30;99.90;;;;;;5052840;28;20264;-61
2022/08/19 03:45:49;;;;;;;22.38;14.55;;;20.20;99.90;;;;;;5053105;28;20184;-61
2022/08/19 03:48:17;;;;;;;19.73;14.82;;;20.20;99.90;;;;;;5052129;28;20221;-61
2022/08/19 03:50:42;;;;;;;22.95;15.63;;;20.20;99.90;;;;;;5051905;28;20567;-61
2022/08/19 03:53:08;;;;;;;23.30;15.35;;;20.20;99.90;;;;;;5051965;28;20335;-61
2022/08/19 03:55:39;;;;;;;20.65;13.95;;;20.20;99.90;;;;;;5052826;28;20516;-62
2022/08/19 03:58:06;;;;;;;20.05;14.68;;;20.20;99.90;;;;;;5052331;28;20224;-62
2022/08/19 04:00:33;;;;;;;20.95;15.10;;;20.20;99.90;;;;;;5052493;28;20219;-63
2022/08/19 04:02:58;;;;;;;21.23;13.82;;;20.20;99.90;;;;;;5051715;28;20263;-62
2022/08/19 04:05:27;;;;;;;21.58;15.57;;;20.20;99.90;;;;;;5051356;28;20224;-61
2022/08/19 04:07:52;;;;;;;25.77;18.17;;;20.20;99.90;;;;;;5050491;28;20200;-61
2022/08/19 04:10:18;;;;;;;24.00;15.48;;;20.10;99.90;;;;;;5051835;28;20269;-60
2022/08/19 04:12:43;;;;;;;20.90;15.32;;;20.10;99.90;;;;;;5052277;28;20189;-60
2022/08/19 04:15:09;;;;;;;21.40;15.25;;;20.10;99.90;;;;;;5052077;28;20182;-63
2022/08/19 04:17:35;;;;;;;25.13;15.05;;;20.00;99.90;;;;;;5052196;28;20178;-62
2022/08/19 04:20:00;;;;;;;22.40;14.82;;;20.00;99.90;;;;;;5051045;28;20185;-61
2022/08/19 04:22:26;;;;;;;22.05;15.45;;;20.00;99.90;;;;;;5051340;28;20180;-60
2022/08/19 04:24:51;;;;;;;20.13;15.18;;;19.90;99.90;;;;;;5051566;28;20185;-60
2022/08/19 04:27:17;;;;;;;21.60;15.68;;;19.80;99.90;;;;;;5051706;28;20181;-63
2022/08/19 04:29:43;;;;;;;22.38;16.15;;;19.80;99.90;;;;;;5051913;28;20556;-61
2022/08/19 04:32:08;;;;;;;24.52;15.50;;;19.70;99.90;;;;;;5052029;28;20169;-61
2022/08/19 04:34:34;;;;;;;21.33;16.10;;;19.70;99.90;;;;;;5051277;28;20260;-61
2022/08/19 04:36:59;;;;;;;22.05;15.55;;;19.70;99.90;;;;;;5051707;28;20184;-62
2022/08/19 04:45:03;;;;;;;22.65;15.35;;;19.70;99.90;;;;;;5051957;28;20263;-61
2022/08/19 04:47:29;;;;;;;23.88;16.73;;;19.70;99.90;;;;;;5050663;28;20181;-59
2022/08/19 04:49:54;;;;;;;25.35;16.25;;;19.70;99.90;;;;;;5046257;28;20185;-59
2022/08/19 04:52:20;;;;;;;22.20;15.85;;;19.80;99.90;;;;;;5051991;28;20548;-59
2022/08/19 04:54:45;;;;;;;21.45;15.77;;;19.80;99.90;;;;;;5051439;28;20213;-60
2022/08/19 04:57:11;;;;;;;22.52;15.13;;;19.80;99.90;;;;;;5051513;28;20272;-60
2022/08/19 04:59:38;;;;;;;23.85;16.13;;;19.80;99.90;;;;;;5050928;28;20718;-59
2022/08/19 05:02:04;;;;;;;21.35;16.30;;;19.80;99.90;;;;;;5050224;28;20225;-61
2022/08/19 05:04:31;;;;;;;23.50;16.63;;;19.90;99.90;;;;;;5051148;28;20545;-61
2022/08/19 05:06:57;;;;;;;22.90;16.52;;;19.90;99.90;;;;;;5036980;28;20185;-61
2022/08/19 05:09:22;;;;;;;24.23;16.75;;;19.90;99.90;;;;;;5054863;28;20209;-61
2022/08/19 05:11:50;;;;;;;25.20;16.45;;;20.00;99.90;;;;;;5051759;28;20189;-62
2022/08/19 05:14:16;;;;;;;21.98;15.63;;;20.00;99.90;;;;;;5051635;28;20186;-60
2022/08/19 05:16:41;;;;;;;22.50;15.40;;;20.00;99.90;;;;;;5055349;28;20187;-60
2022/08/19 05:24:36;;;;;;;23.40;16.33;;;20.10;99.90;;;;;;5050912;28;20235;-60
2022/08/19 05:27:02;;;;;;;25.08;15.88;;;20.10;99.90;;;;;;5051532;28;20181;-60
2022/08/19 05:29:31;;;;;;;23.58;15.63;;;20.20;99.90;;;;;;5051536;28;20291;-60
2022/08/19 05:31:57;;;;;;;25.85;15.50;;;20.20;99.90;;;;;;5051332;28;20192;-60
2022/08/19 05:34:26;;;;;;;22.40;14.80;;;20.20;99.90;;;;;;5051360;28;20260;-61
2022/08/19 05:36:57;;;;;;;22.85;15.35;;;20.30;99.90;;;;;;5051465;28;20181;-60
2022/08/19 05:39:27;;;;;;;22.30;16.35;;;20.30;99.90;;;;;;5055310;28;20181;-60
2022/08/19 05:41:56;;;;;;;24.83;16.33;;;20.30;99.90;;;;;;5055576;28;20649;-60
2022/08/19 05:44:26;;;;;;;22.50;15.20;;;20.30;99.90;;;;;;5055623;28;20511;-60
2022/08/19 05:46:52;;;;;;;21.40;14.57;;;20.30;99.90;;;;;;5054317;28;20173;-61
2022/08/19 05:49:20;;;;;;;22.50;15.77;;;20.30;99.90;;;;;;5039362;28;20222;-60
2022/08/19 05:51:46;;;;;;;28.17;17.98;;;20.40;99.90;;;;;;5035486;28;20174;-60
2022/08/19 05:54:13;;;;;;;22.23;16.48;;;20.30;99.90;;;;;;5035426;28;20177;-60
2022/08/19 05:56:40;;;;;;;24.60;17.20;;;20.40;99.90;;;;;;5035281;28;20178;-60
2022/08/19 05:59:09;;;;;;;22.63;15.30;;;20.40;99.90;;;;;;5046098;28;20745;-60
2022/08/19 06:01:36;;;;;;;23.67;16.88;;;20.30;99.90;;;;;;5053500;28;20232;-60
2022/08/19 06:04:02;;;;;;;25.40;16.75;;;20.30;99.90;;;;;;5054800;28;20185;-60
2022/08/19 06:06:28;;;;;;;22.77;15.77;;;20.30;99.90;;;;;;5055924;28;20181;-60
2022/08/19 06:08:54;;;;;;;24.35;16.52;;;20.30;99.90;;;;;;5055050;28;20740;-60
2022/08/19 06:11:32;;;;;;;24.45;15.55;;;20.30;99.90;;;;;;5055136;28;20170;-60
2022/08/19 06:13:59;;;;;;;23.85;15.50;;;20.30;99.90;;;;;;5054997;28;20208;-60
2022/08/19 06:16:26;;;;;;;23.80;16.25;;;20.30;99.90;;;;;;5055154;28;20231;-60
2022/08/19 06:18:53;;;;;;;22.65;15.27;;;20.30;99.90;;;;;;5053940;28;20181;-60
2022/08/19 06:21:22;;;;;;;21.65;15.55;;;20.30;99.90;;;;;;5054855;28;20174;-60
2022/08/19 06:23:48;;;;;;;20.52;15.43;;;20.30;99.90;;;;;;5054791;28;20177;-60
2022/08/19 06:26:15;;;;;;;21.77;14.88;;;20.30;99.90;;;;;;5054917;28;20603;-60
2022/08/19 06:28:44;;;;;;;23.45;15.50;;;20.40;99.90;;;;;;5054669;28;20217;-60
2022/08/19 06:31:11;;;;;;;21.42;15.23;;;20.50;99.90;;;;;;5054717;28;20184;-60
2022/08/19 06:33:37;;;;;;;21.27;15.55;;;20.50;99.90;;;;;;5054748;28;20185;-60
2022/08/19 06:36:02;;;;;;;22.60;15.82;;;20.60;99.90;;;;;;5054717;28;20535;-60
2022/08/19 06:38:28;;;;;;;22.33;15.10;;;20.60;99.90;;;;;;5054624;28;20176;-60
2022/08/19 06:41:02;;;;;;;23.10;15.70;;;20.70;99.90;;;;;;5054528;28;20240;-60
2022/08/19 06:43:28;;;;;;;21.33;15.70;;;20.80;99.90;;;;;;5054659;28;20177;-61
2022/08/19 06:45:53;;;;;;;20.27;14.73;;;20.80;99.90;;;;;;5054518;28;20176;-60
2022/08/19 06:48:19;;;;;;;20.30;14.27;;;20.90;99.90;;;;;;5046486;28;20210;-60
2022/08/19 06:50:44;;;;;;;21.45;14.90;;;20.90;99.90;;;;;;5033154;28;20217;-60
2022/08/19 06:53:10;;;;;;;19.48;14.80;;;20.90;99.90;;;;;;5034302;28;20189;-60
2022/08/19 06:55:36;;;;;;;23.13;14.73;;;21.00;99.90;;;;;;5034447;28;20175;-60
2022/08/19 06:58:03;;;;;;;19.20;13.65;;;21.00;99.90;;;;;;5034275;28;20178;-60
2022/08/19 07:00:29;;;;;;;18.42;13.23;;;21.10;99.90;;;;;;5034164;28;20244;-60
2022/08/19 07:02:54;;;;;;;22.13;14.50;;;21.20;99.90;;;;;;5034238;28;20217;-61
2022/08/19 07:05:20;;;;;;;17.70;13.27;;;21.30;99.90;;;;;;5034177;28;20178;-60
2022/08/19 07:07:46;;;;;;;19.65;13.30;;;21.30;99.90;;;;;;5034072;28;20194;-60
2022/08/19 07:10:12;;;;;;;17.50;12.77;;;21.40;99.90;;;;;;5034161;28;20209;-61
2022/08/19 07:12:37;;;;;;;15.70;12.38;;;21.50;99.90;;;;;;5034038;28;20529;-60
2022/08/19 07:15:05;;;;;;;16.52;12.55;;;21.60;99.90;;;;;;5033980;28;20185;-61
2022/08/19 07:17:30;;;;;;;18.33;13.15;;;21.60;99.90;;;;;;5033978;28;20590;-60
2022/08/19 07:19:56;;;;;;;19.60;13.32;;;21.70;99.90;;;;;;5033850;28;20210;-60
2022/08/19 07:22:24;;;;;;;17.55;12.32;;;21.80;99.90;;;;;;5050064;28;20202;-60
2022/08/19 07:24:51;;;;;;;14.88;11.90;;;21.80;99.90;;;;;;5053790;28;20181;-60
2022/08/19 07:27:18;;;;;;;16.77;12.05;;;21.90;99.90;;;;;;5053746;28;20209;-60
2022/08/19 07:29:45;;;;;;;15.05;11.73;;;22.00;99.90;;;;;;5053557;28;20738;-60
2022/08/19 07:32:11;;;;;;;16.17;11.48;;;22.10;99.90;;;;;;5053664;28;20531;-60
2022/08/19 07:34:37;;;;;;;15.90;11.38;;;22.10;99.90;;;;;;5053631;28;20185;-60
2022/08/19 07:37:04;;;;;;;17.90;11.70;;;22.20;99.90;;;;;;5052927;28;20173;-60
2022/08/19 07:39:32;;;;;;;16.80;11.82;;;22.20;99.90;;;;;;5052503;28;20188;-60
2022/08/19 07:42:00;;;;;;;13.57;10.68;;;22.30;99.90;;;;;;5053125;28;20253;-60
2022/08/19 07:44:26;;;;;;;19.92;11.77;;;22.40;99.90;;;;;;5065580;28;20204;-60
2022/08/19 07:46:55;;;;;;;15.38;11.15;;;22.50;99.90;;;;;;5054969;28;20652;-61
2022/08/19 07:49:22;;;;;;;16.60;10.80;;;22.70;99.90;;;;;;5053084;28;20221;-62
2022/08/19 07:51:51;;;;;;;16.85;11.15;;;22.80;99.90;;;;;;5052902;28;20260;-61
2022/08/19 07:54:17;;;;;;;15.43;10.95;;;23.00;99.90;;;;;;5033401;28;20591;-60
2022/08/19 07:56:43;;;;;;;14.65;10.55;;;23.20;99.90;;;;;;5040072;28;20173;-60
2022/08/19 07:59:09;;;;;;;13.23;9.80;;;23.40;99.90;;;;;;5053091;28;20178;-60
2022/08/19 08:01:35;;;;;;;14.30;10.45;;;23.60;99.90;;;;;;5052508;28;20224;-60
2022/08/19 08:09:33;;;;;;;14.60;9.40;;;24.10;99.50;;;;;;5052860;28;20706;-61
2022/08/19 08:12:06;;;;;;;15.23;10.05;;;24.30;99.10;;;;;;5052700;28;20180;-60
2022/08/19 08:14:46;;;;;;;11.75;9.32;;;24.50;98.60;;;;;;5053000;28;20235;-61
2022/08/19 08:17:13;;;;;;;13.55;8.73;;;24.70;98.30;;;;;;5052764;28;20212;-61
2022/08/19 08:19:43;;;;;;;11.85;8.77;;;24.90;97.80;;;;;;5052386;28;20525;-61
2022/08/19 08:23:21;;;;;;;12.38;8.63;;;25.10;97.40;;;;;;5052556;28;20178;-61
2022/08/19 08:24:58;;;;;;;13.60;8.98;;;25.30;97.00;;;;;;5032500;28;20276;-61
2022/08/19 08:27:24;;;;;;;14.73;9.27;;;25.40;96.60;;;;;;5050135;28;20188;-60
2022/08/19 08:29:49;;;;;;;10.15;8.20;;;25.40;96.50;;;;;;5052526;28;20209;-60
2022/08/19 08:32:15;;;;;;;11.50;7.97;;;25.30;96.50;;;;;;5052084;28;20292;-60
2022/08/19 08:34:42;;;;;;;12.27;8.13;;;25.40;96.40;;;;;;5052308;28;20261;-60
2022/08/19 08:37:07;;;;;;;15.18;8.68;;;25.50;96.30;;;;;;5052005;28;20682;-60
2022/08/19 08:39:33;;;;;;;12.50;8.00;;;25.50;96.30;;;;;;5052339;28;20352;-59
2022/08/19 08:42:06;;;;;;;9.27;7.32;;;25.50;96.40;;;;;;5052213;28;20212;-60
2022/08/19 08:44:50;;;;;;;12.10;7.90;;;25.60;96.20;;;;;;5052085;28;20551;-60
2022/08/19 08:47:20;;;;;;;11.77;7.93;;;25.80;95.70;;;;;;5051929;28;20173;-60
2022/08/19 08:49:59;;;;;;;15.07;8.48;;;25.90;95.40;;;;;;5051489;28;20618;-59
2022/08/19 08:52:29;;;;;;;10.82;7.53;;;26.10;95.20;;;;;;5052042;28;20185;-60
2022/08/19 08:54:58;;;;;;;14.40;7.60;;;26.20;94.80;;;;;;5051573;28;20231;-60
2022/08/19 08:57:34;;;;;;;11.13;7.43;;;26.20;94.70;;;;;;5051458;28;20260;-60
2022/08/19 09:00:05;;;;;;;10.30;7.75;;;26.30;94.50;;;;;;5051659;28;20272;-60
2022/08/19 09:02:31;;;;;;;12.25;7.68;;;26.50;94.20;;;;;;5051703;28;20198;-60
2022/08/19 09:04:56;;;;;;;11.15;7.70;;;26.70;93.50;;;;;;5051720;28;20181;-59
2022/08/19 09:07:49;;;;;;;12.05;7.38;;;26.80;93.40;;;;;;5051789;28;20230;-59
2022/08/19 09:10:36;;;;;;;10.02;7.57;;;26.80;93.30;;;;;;5032058;28;20190;-59
2022/08/19 09:13:20;;;;;;;11.90;8.07;;;26.90;92.80;;;;;;5032178;28;20228;-60
2022/08/19 09:15:53;;;;;;;10.25;7.15;;;26.90;92.70;;;;;;5051891;28;20180;-60
2022/08/19 09:18:19;;;;;;;9.63;7.32;;;26.90;92.80;;;;;;5051472;28;20231;-60
2022/08/19 09:20:47;;;;;;;11.50;7.60;;;27.00;92.80;;;;;;5051680;28;20268;-60
2022/08/19 09:23:12;;;;;;;9.57;6.78;;;27.20;92.40;;;;;;5051523;28;20173;-60
2022/08/19 09:25:39;;;;;;;10.95;7.35;;;27.30;92.20;;;;;;5051599;28;20559;-60
2022/08/19 09:28:06;;;;;;;10.85;7.40;;;27.70;92.40;;;;;;5050950;28;20212;-60
2022/08/19 09:30:34;;;;;;;12.50;7.53;;;28.20;91.80;;;;;;5051697;28;20185;-60
2022/08/19 09:33:00;;;;;;;10.95;7.25;;;28.70;91.00;;;;;;5050604;28;20166;-59
2022/08/19 09:35:29;;;;;;;9.40;7.07;;;29.00;88.80;;;;;;5051297;28;20181;-60
2022/08/19 09:37:56;;;;;;;8.68;7.43;;;29.30;87.80;;;;;;5047087;28;20280;-58
2022/08/19 09:40:22;;;;;;;8.25;6.30;;;29.60;87.80;;;;;;5051565;28;20177;-59
2022/08/19 09:42:48;;;;;;;9.98;6.50;;;30.20;85.60;;;;;;5051463;28;20174;-60
2022/08/19 09:45:20;;;;;;;9.60;7.10;;;30.40;81.10;;;;;;5051299;28;20169;-60
2022/08/19 09:47:46;;;;;;;8.45;6.82;;;30.50;79.40;;;;;;5051232;28;20185;-60
2022/08/19 09:50:12;;;;;;;10.98;6.72;;;30.50;78.80;;;;;;5051099;28;20590;-60
2022/08/19 09:52:38;;;;;;;9.57;6.93;;;30.40;77.70;;;;;;5051302;28;20598;-59
2022/08/19 09:55:09;;;;;;;10.45;6.68;;;30.30;77.40;;;;;;5051016;28;20181;-59
2022/08/19 09:57:35;;;;;;;9.70;7.05;;;30.10;77.80;;;;;;5051477;28;20236;-60
2022/08/19 10:00:01;;;;;;;7.40;6.45;;;29.90;77.50;;;;;;5050467;28;20181;-60
2022/08/19 10:02:26;;;;;;;10.38;7.43;;;29.70;77.50;;;;;;5051103;28;20217;-60
2022/08/19 10:07:37;;;;;;;9.38;6.65;;;29.30;78.20;;;;;;5051134;28;20188;-61
2022/08/19 10:10:07;;;;;;;8.98;5.97;;;29.20;79.10;;;;;;5051262;28;20185;-58
2022/08/19 10:12:34;;;;;;;8.32;6.30;;;29.10;79.40;;;;;;5051266;28;20261;-58
2022/08/19 10:15:00;;;;;;;9.20;7.15;;;29.50;79.60;;;;;;5050808;28;20564;-60
2022/08/19 10:17:26;;;;;;;8.73;5.85;;;29.90;76.90;;;;;;5051269;28;20174;-59
2022/08/19 10:19:52;;;;;;;9.18;6.68;;;30.00;77.80;;;;;;5050735;28;20188;-60
2022/08/19 10:22:18;;;;;;;6.90;6.15;;;30.20;76.60;;;;;;5051101;28;20177;-59
2022/08/19 10:24:45;;;;;;;9.63;6.30;;;30.50;74.90;;;;;;5053132;28;20185;-60
2022/08/19 10:27:12;;;;;;;8.57;6.50;;;30.60;74.00;;;;;;5054863;28;20189;-60
2022/08/19 10:29:38;;;;;;;6.72;5.85;;;30.50;73.30;;;;;;5054360;28;20577;-60
2022/08/19 10:32:07;;;;;;;7.68;5.82;;;30.60;74.00;;;;;;5054716;28;20178;-60
2022/08/19 10:34:33;;;;;;;7.22;5.25;;;30.60;73.90;;;;;;5054233;28;20185;-60
2022/08/19 10:37:00;;;;;;;6.93;5.40;;;30.50;72.00;;;;;;5054295;28;20180;-60
2022/08/19 10:39:29;;;;;;;5.32;4.60;;;30.40;71.70;;;;;;5054702;28;20576;-60
2022/08/19 10:41:56;;;;;;;7.40;4.65;;;30.10;72.10;;;;;;5054305;28;20188;-60
2022/08/19 10:44:23;;;;;;;5.20;4.55;;;29.70;71.90;;;;;;5054646;28;20185;-60
2022/08/19 10:46:49;;;;;;;6.88;4.85;;;29.40;72.20;;;;;;5054183;28;20584;-60
2022/08/19 10:49:15;;;;;;;7.68;5.10;;;29.20;73.30;;;;;;5054045;28;20209;-60
2022/08/19 10:56:50;;;;;;;6.10;4.07;;;29.10;72.80;;;;;;5050479;28;20290;-60
2022/08/19 10:57:11;;;;;;;6.57;4.10;;;29.10;71.90;;;;;;5053887;28;20193;-59
2022/08/19 10:59:38;;;;;;;4.45;3.90;;;29.30;71.00;;;;;;5053607;28;20189;-60
2022/08/19 11:02:06;;;;;;;5.07;3.72;;;29.60;68.60;;;;;;5053895;28;20247;-59
2022/08/19 11:04:33;;;;;;;4.55;3.70;;;29.70;68.60;;;;;;5054245;28;20178;-60
2022/08/19 11:06:58;;;;;;;3.92;3.33;;;29.90;67.80;;;;;;5053921;28;20189;-59
2022/08/19 11:09:27;;;;;;;5.82;3.55;;;29.90;67.10;;;;;;5061404;28;20209;-60
2022/08/19 11:11:53;;;;;;;4.25;3.40;;;29.90;67.00;;;;;;5074072;28;20226;-61
2022/08/19 11:14:20;;;;;;;7.80;3.85;;;29.80;67.00;;;;;;5073852;28;20584;-59
2022/08/19 11:16:48;;;;;;;4.53;4.10;;;29.70;67.00;;;;;;5073961;28;20260;-60
2022/08/19 11:19:16;;;;;;;4.40;3.40;;;29.60;67.70;;;;;;5059657;28;20181;-60
2022/08/19 11:21:46;;;;;;;3.95;3.40;;;29.60;67.00;;;;;;5053780;28;20264;-60
2022/08/19 11:24:18;;;;;;;5.03;3.47;;;29.80;66.90;;;;;;5053787;28;20182;-59
2022/08/19 11:26:44;;;;;;;5.13;3.72;;;30.00;66.70;;;;;;5053862;28;20261;-59
2022/08/19 11:29:12;;;;;;;4.32;3.58;;;30.40;65.60;;;;;;5053613;28;20221;-60
2022/08/19 11:31:43;;;;;;;3.40;3.10;;;30.60;64.10;;;;;;5053326;28;20185;-60
2022/08/19 11:34:12;;;;;;;5.30;3.50;;;30.80;62.90;;;;;;5053660;28;20165;-60
2022/08/19 11:36:40;;;;;;;8.88;3.60;;;31.10;61.30;;;;;;5052142;28;20193;-60
2022/08/19 11:39:07;;;;;;;4.47;3.50;;;31.10;59.60;;;;;;5053162;28;20181;-60
2022/08/19 11:41:33;;;;;;;4.18;3.80;;;31.10;60.10;;;;;;5052334;28;20186;-61
2022/08/19 11:43:59;;;;;;;5.65;3.35;;;31.40;60.50;;;;;;5052454;28;20178;-60
2022/08/19 11:46:29;;;;;;;5.50;3.90;;;31.60;59.50;;;;;;5053228;28;20591;-60
2022/08/19 11:48:55;;;;;;;5.53;4.05;;;31.50;59.80;;;;;;5040294;28;20236;-60
2022/08/19 11:51:24;;;;;;;4.05;3.65;;;31.30;59.60;;;;;;5051392;28;20644;-60
2022/08/19 11:53:50;;;;;;;4.72;3.33;;;31.10;59.90;;;;;;5053184;28;20264;-60
2022/08/19 11:56:16;;;;;;;4.22;3.83;;;30.90;60.30;;;;;;5051645;28;20181;-62
2022/08/19 11:58:43;;;;;;;6.18;3.47;;;30.80;60.00;;;;;;5053319;28;20208;-62
2022/08/19 12:01:11;;;;;;;4.70;3.83;;;30.90;60.00;;;;;;5052748;28;20221;-61
2022/08/19 12:03:37;;;;;;;4.32;3.50;;;31.10;60.90;;;;;;5033119;28;20232;-62
2022/08/19 12:06:05;;;;;;;5.10;3.40;;;31.30;59.50;;;;;;5032918;28;20182;-62
2022/08/19 12:08:31;;;;;;;4.10;3.70;;;31.30;57.40;;;;;;5032822;28;20222;-62
2022/08/19 12:10:57;;;;;;;5.13;2.97;;;31.30;57.90;;;;;;5032969;28;20273;-61
2022/08/19 12:13:22;;;;;;;3.83;3.40;;;31.20;57.10;;;;;;5045832;28;20181;-62
2022/08/19 12:15:48;;;;;;;3.50;3.20;;;31.10;56.70;;;;;;5052038;28;20185;-62
2022/08/19 12:18:14;;;;;;;4.20;3.42;;;31.00;57.60;;;;;;5052189;28;20561;-62
2022/08/19 12:20:41;;;;;;;4.82;3.90;;;30.90;58.30;;;;;;5052361;28;20277;-62
2022/08/19 12:23:09;;;;;;;5.65;4.43;;;30.70;59.20;;;;;;5051746;28;20196;-62
2022/08/19 12:25:36;;;;;;;4.95;4.45;;;30.70;61.10;;;;;;5052310;28;20201;-62
2022/08/19 12:28:02;;;;;;;6.57;4.82;;;30.50;61.50;;;;;;5052470;28;20275;-61
2022/08/19 12:30:27;;;;;;;7.93;5.05;;;30.50;61.80;;;;;;5052474;28;20213;-61
2022/08/19 12:32:53;;;;;;;6.32;4.80;;;30.40;62.10;;;;;;5052436;28;20248;-62
2022/08/19 12:35:19;;;;;;;5.30;4.70;;;30.30;62.60;;;;;;5052192;28;20185;-62
2022/08/19 12:37:46;;;;;;;6.90;4.60;;;30.30;62.90;;;;;;5052544;28;20744;-63
2022/08/19 12:40:13;;;;;;;6.75;4.78;;;30.40;62.30;;;;;;5035156;28;20264;-62
2022/08/19 12:42:42;;;;;;;5.15;4.65;;;30.30;61.20;;;;;;5037017;28;20245;-61
2022/08/19 12:45:10;;;;;;;6.05;4.88;;;30.20;61.50;;;;;;5051909;28;20193;-62
2022/08/19 12:47:35;;;;;;;7.40;5.45;;;30.10;61.60;;;;;;5051901;28;20215;-62
2022/08/19 12:50:01;;;;;;;8.13;5.57;;;29.90;62.00;;;;;;5051182;28;20209;-62
2022/08/19 12:52:27;;;;;;;8.05;5.22;;;29.70;62.60;;;;;;5051800;28;20201;-62
2022/08/19 12:54:55;;;;;;;7.68;5.32;;;29.40;63.20;;;;;;5051716;28;20185;-61
2022/08/19 12:57:25;;;;;;;6.32;4.90;;;29.20;63.70;;;;;;5051923;28;20261;-61